CYTH

Thompson Airport

Thompson, Manitoba, Canada
TAF CYTH 201838Z 2019/2107 22008KT P6SM FEW220 FM210200 20008KT P6SM SCT040 BKN080 TEMPO 2102/2107 3SM -SN OVC040 RMK NXT FCST BY 210100Z
Issued Valid From Valid To
Jan-20 @ 18:38 UTC
(3 hours ago)
Jan-20 @ 19:00 UTC
(3 hours ago)
Jan-21 @ 07:00 UTC
(in 9 hours)
Jan-20 @ 19:00 to Jan-21 @ 02:00
TAF CYTH 201838Z 2019/2107 22008KT P6SM FEW220
Wind Visibility Clouds
220° at 8 knots Greater than 6 miles
  • Few at 22,000' AGL
Temporary Jan-21 @ 02:00 to Jan-21 @ 07:00
TEMPO 2102/2107 3SM -SN OVC040 RMK NXT FCST BY 210100Z
Visibility Clouds Conditions
3 miles
  • Overcast at 4,000' AGL
  • Light Snow
From Jan-21 @ 02:00 to Jan-21 @ 07:00
FM210200 20008KT P6SM SCT040 BKN080
Wind Visibility Clouds
200° at 8 knots Greater than 6 miles
  • Scattered at 4,000' AGL
  • Broken at 8,000' AGL
TAF CYTH 201838Z 2019/2107 22008KT P6SM FEW220 FM210200 20008KT P6SM SCT040 BKN080 TEMPO 2102/2107 3SM -SN OVC040 RMK NXT FCST BY 210100Z
Issued Jan-20 @ 18:38 UTC
(3 hours ago)
Valid From Jan-20 @ 19:00 UTC
(3 hours ago)
Valid To Jan-21 @ 07:00 UTC
(in 9 hours)
Jan-20 @ 19:00 - Jan-21 @ 02:00
Wind Visibility
220° at 8 knots Greater than 6 miles
Clouds
  • Few at 22,000' AGL
Temporary Jan-21 @ 02:00 - Jan-21 @ 07:00
Clouds
  • Overcast at 4,000' AGL
Conditions
  • Light Snow
From Jan-21 @ 02:00 - Jan-21 @ 07:00
Wind Visibility
200° at 8 knots Greater than 6 miles
Clouds
  • Scattered at 4,000' AGL
  • Broken at 8,000' AGL